Stations météo

Publicité
Rodkallen, Suède (2188): Température de l'air & dewpoint: 10.02.2019 18:00:00 - 16.02.2019 18:00:00 (CET)Rodkallen, Suède (2188): Vitesse du vent & gusts: 10.02.2019 18:00:00 - 16.02.2019 18:00:00 (CET)Rodkallen, Suède (2188): Direction du vent: 10.02.2019 18:00:00 - 16.02.2019 18:00:00 (CET)Rodkallen, Suède (2188): visibility: 10.02.2019 18:00:00 - 16.02.2019 18:00:00 (CET)Rodkallen, Suède (2188): Quantités de précipitations: 10.02.2019 18:00:00 - 16.02.2019 18:00:00 (CET)
Date & Time tt [°C] td [°C] ff [km/h] ff [knt] fx [km/h] fx [knt] dd vv [km] rr [mm]
16.02.2019 18:00:00 2,2 -5,1 57 31 73 39 WSW 50 0,0
16.02.2019 17:00:00 2,0 -4,5 48 26 66 36 SW 50 0,0
16.02.2019 16:00:00 2,5 -4,9 45 24 61 33 SW 50 0,0
16.02.2019 15:00:00 3,1 -5,3 44 24 61 33 WSW 50 0,0
16.02.2019 14:00:00 2,9 -3,7 39 21 56 30 WSW 50 0,0
16.02.2019 13:00:00 3,0 -3,4 32 18 56 30 WSW 50 0,0
16.02.2019 12:00:00 3,8 -2,6 38 20 49 26 WSW 50 0,0
16.02.2019 11:00:00 4,2 -1,8 34 18 45 24 WSW 50 0,0
16.02.2019 10:00:00 1,3 -0,5 30 16 45 24 SSW 49 0,0
16.02.2019 09:00:00 1,2 -0,3 36 20 48 26 SSW 50 0,0
16.02.2019 08:00:00 0,7 0,0 36 19 51 28 S 50 0,0
16.02.2019 07:00:00 0,6 -0,3 39 21 51 28 S 42 0,0
16.02.2019 06:00:00 0,7 -0,2 34 18 48 26 S 49 0,0
16.02.2019 05:00:00 0,8 -0,2 34 18 40 22 S 37 0,0
16.02.2019 04:00:00 1,3 0,3 27 14 32 18 S 42 0,0
16.02.2019 03:00:00 1,0 0,0 22 12 28 15 SSE 45 0,0
16.02.2019 02:00:00 0,6 -0,4 19 10 26 14 SSE 50 0,0
16.02.2019 01:00:00 0,7 -0,5 21 12 25 13 SSE 50 0,0
16.02.2019 00:00:00 1,2 -0,3 19 10 24 13 S 50 0,0
15.02.2019 23:00:00 1,0 -0,6 18 10 23 13 S 50 0,0
15.02.2019 22:00:00 0,9 -0,7 15 8 21 11 S 50 0,0
15.02.2019 21:00:00 1,0 -0,9 16 9 23 12 SSW 50 0,0
15.02.2019 20:00:00 1,2 -1,0 17 9 23 12 SW 50 0,0
15.02.2019 19:00:00 1,5 -1,4 20 11 26 14 SW 48 0,0
15.02.2019 18:00:00 1,4 -1,7 21 11 31 17 SW 35 0,0
15.02.2019 17:00:00 1,9 -2,1 26 14 31 17 WSW 30 0,0
15.02.2019 16:00:00 1,7 -2,1 22 12 29 16 SW 31 0,0
15.02.2019 15:00:00 2,5 -2,2 24 13 31 17 WSW 40 0,0
15.02.2019 14:00:00 2,6 -2,5 22 12 35 19 WSW 32 0,0
15.02.2019 13:00:00 2,5 -2,4 28 15 35 19 WSW 38 0,0
15.02.2019 12:00:00 2,7 -2,6 27 15 38 20 W 34 0,0
15.02.2019 11:00:00 2,3 -2,6 29 16 38 20 WSW 27 0,0
15.02.2019 10:00:00 1,1 -2,7 24 13 41 22 SW 30 0,0
15.02.2019 09:00:00 2,1 -3,2 30 16 50 27 W 36 0,0
15.02.2019 08:00:00 1,8 -3,5 30 16 50 27 W 31 0,0
15.02.2019 07:00:00 3,2 -3,2 31 17 47 25 W 36 0,0
15.02.2019 06:00:00 2,3 -3,0 23 13 55 30 W 31 0,0
15.02.2019 05:00:00 2,3 -2,8 33 18 55 30 W 33 0,0
15.02.2019 04:00:00 3,2 -2,3 40 22 64 35 W 46 0,0
15.02.2019 03:00:00 3,2 -2,3 34 18 65 35 W 39 0,0
15.02.2019 02:00:00 3,2 -2,1 42 23 63 34 W 29 0,0
15.02.2019 01:00:00 2,9 -2,3 40 21 72 39 W 30 0,0
15.02.2019 00:00:00 3,6 -1,6 54 29 72 39 WSW 30 0,0
14.02.2019 23:00:00 3,7 -1,7 55 30 73 39 WSW 40 0,0
14.02.2019 22:00:00 3,9 -1,5 56 30 69 38 W 50 0,0
14.02.2019 21:00:00 3,2 -0,3 45 24 61 33 W 50 0,0
14.02.2019 20:00:00 3,6 0,1 48 26 59 32 WSW 26 0,0
14.02.2019 19:00:00 1,1 -0,7 35 19 55 30 SSW 42 0,0
14.02.2019 18:00:00 1,9 0,0 42 23 53 29 SSW 50 0,0
14.02.2019 17:00:00 2,1 0,2 30 16 55 30 SSW 50 0,0
14.02.2019 16:00:00 2,0 0,1 36 20 56 31 SSW 50 0,0
14.02.2019 15:00:00 1,5 0,0 36 19 63 34 SSW 37 0,0
14.02.2019 14:00:00 1,1 -0,1 50 27 64 34 SSW 24 0,0
14.02.2019 13:00:00 0,6 -0,4 49 27 64 34 S 16 0,9
14.02.2019 12:00:00 0,3 -0,6 36 19 57 31 S 24 0,0
14.02.2019 11:00:00 -1,8 -2,8 44 24 57 31 SSE 4,5 0,2
14.02.2019 10:00:00 -3,3 -4,3 42 23 51 28 SSE 3,0 0,3
14.02.2019 09:00:00 -4,0 -5,0 35 19 42 23 SE 3,5 0,0
14.02.2019 08:00:00 -5,0 -6,0 22 12 27 14 SSE 30 0,0
14.02.2019 07:00:00 -6,3 -7,5 14 8 16 9 SSE 45 0,0
14.02.2019 06:00:00 -11,2 -12,9 7 4 12 7 S 42 0,0
14.02.2019 05:00:00 -15,7 -17,8 10 6 11 6 SSW 36 0,0
14.02.2019 04:00:00 -16,5 -18,7 5 3 16 9 SW 50 0,0
14.02.2019 03:00:00 -13,2 -15,0 5 3 16 9 W 48 0,0
14.02.2019 02:00:00 -12,4 -14,3 9 5 16 9 N 35 0,0
14.02.2019 01:00:00 -11,1 -12,7 10 5 16 9 NW 41 0,0
14.02.2019 00:00:00 -16,7 -18,8 12 6 18 10 NW - 0,0
13.02.2019 23:00:00 -10,3 -11,8 13 7 22 12 NNW 39 0,0
13.02.2019 22:00:00 -9,7 -11,4 14 8 29 16 NNW 15 0,0
13.02.2019 21:00:00 -8,3 -9,8 16 9 34 19 NNW 4,6 0,2
13.02.2019 20:00:00 -8,2 -9,7 21 12 34 19 NNW 1,8 0,0
13.02.2019 19:00:00 -6,5 -7,9 25 14 31 17 N 38 0,0
13.02.2019 18:00:00 -5,6 -6,7 26 14 32 17 NE 19 0,0
13.02.2019 17:00:00 -5,3 -6,3 23 12 32 17 NE 3,3 0,1
13.02.2019 16:00:00 -3,8 -4,8 22 12 30 16 E 3,4 0,0
13.02.2019 15:00:00 -3,7 -4,7 22 12 32 17 E 2,3 0,1
13.02.2019 14:00:00 -3,6 -4,7 24 13 32 17 ESE 5 0,0
13.02.2019 13:00:00 -3,6 -4,7 25 14 31 17 ESE 19 0,0
13.02.2019 12:00:00 -3,1 -4,1 22 12 29 16 ESE 2,0 0,2
13.02.2019 11:00:00 -4,5 -5,6 21 12 25 14 E 2,4 0,4
13.02.2019 10:00:00 -5,8 -6,9 16 8 22 12 ENE 1,3 0,5
13.02.2019 09:00:00 -6,2 -7,4 9 5 10 5 NE 2,2 0,2
13.02.2019 08:00:00 -6,8 -8,2 0 0 16 9 N 8 0,0
13.02.2019 07:00:00 -7,2 -8,6 13 7 16 9 S 28 0,0
13.02.2019 06:00:00 -8,6 -10,1 9 5 15 8 SSW 50 0,0
13.02.2019 05:00:00 -10,6 -12,2 10 5 15 8 SSW 50 0,0
13.02.2019 04:00:00 -12,3 -14,0 5 3 16 9 SSW 25 0,0
13.02.2019 03:00:00 -11,6 -13,2 10 6 20 11 W 50 0,0
13.02.2019 02:00:00 -14,6 -16,6 15 8 27 15 WSW 50 0,0
13.02.2019 01:00:00 -13,4 -15,2 19 11 27 15 SW 50 0,0
13.02.2019 00:00:00 -14,1 -15,9 16 9 22 12 SW 48 0,0
12.02.2019 23:00:00 -10,6 -12,3 11 6 26 14 WSW 50 0,0
12.02.2019 22:00:00 -7,5 -9,9 21 11 27 15 WSW 50 0,0
12.02.2019 21:00:00 -9,9 -12,3 14 8 29 16 WSW 50 0,0
12.02.2019 20:00:00 -6,5 -8,9 22 12 29 15 W 50 0,0
12.02.2019 19:00:00 -9,5 -11,7 18 10 25 13 WSW 50 0,0
12.02.2019 18:00:00 -6,5 -9,2 22 12 26 14 W 50 0,0
12.02.2019 17:00:00 -7,1 -9,5 22 12 26 14 W 50 0,0
12.02.2019 16:00:00 -8,1 -10,2 17 9 24 13 WSW 50 0,0
12.02.2019 15:00:00 -7,6 -9,5 16 9 24 13 WSW 50 0,0
12.02.2019 14:00:00 -5,7 -7,8 21 11 23 13 W 50 0,0
12.02.2019 13:00:00 -6,3 -8,3 19 11 23 13 W 50 0,0
12.02.2019 12:00:00 -9,9 -11,5 19 10 25 13 SW 46 0,0
12.02.2019 11:00:00 -9,9 -11,5 20 11 36 20 WSW 50 0,0
12.02.2019 10:00:00 -8,8 -10,3 16 9 36 20 WSW 50 0,0
12.02.2019 09:00:00 -7,8 -9,2 22 12 29 16 W 50 0,0
12.02.2019 08:00:00 -8,6 -9,9 24 13 29 15 W 50 0,0
12.02.2019 07:00:00 -10,3 -11,9 19 11 28 15 W 50 0,0
12.02.2019 06:00:00 -9,7 -11,2 21 11 23 13 W 50 0,0
12.02.2019 05:00:00 -12,5 -14,2 13 7 25 13 WSW 46 0,0
12.02.2019 04:00:00 -10,9 -12,5 15 8 25 13 W 50 0,0
12.02.2019 03:00:00 -9,2 -10,7 21 12 23 13 W 50 0,0
12.02.2019 02:00:00 -10,0 -11,5 18 10 22 12 WSW 50 0,0
12.02.2019 01:00:00 -9,6 -11,1 18 10 23 12 W 50 0,0
12.02.2019 00:00:00 -9,3 -10,8 19 10 22 12 W 50 0,0
11.02.2019 23:00:00 -12,2 -13,9 15 8 23 12 W 50 0,0
11.02.2019 22:00:00 -14,0 -16,0 20 11 23 12 W 50 0,0
11.02.2019 21:00:00 -12,9 -14,6 19 11 22 12 W 50 0,0
11.02.2019 20:00:00 -12,3 -14,0 17 9 23 12 W 50 0,0
11.02.2019 19:00:00 -11,4 -13,1 18 10 23 12 WNW 50 0,0
11.02.2019 18:00:00 -10,6 -12,2 17 9 18 10 W 42 0,0
11.02.2019 17:00:00 -11,8 -13,4 15 8 17 9 W - 0,0
11.02.2019 16:00:00 -12,0 -13,7 16 8 17 9 W 50 0,0
11.02.2019 15:00:00 -11,0 -12,7 11 6 13 7 W 50 0,0
11.02.2019 14:00:00 -12,6 -14,6 11 6 13 7 SW 50 0,0
11.02.2019 13:00:00 -11,6 -13,5 10 6 16 9 SW 50 0,0
11.02.2019 12:00:00 -14,0 -16,1 11 6 17 9 SW 49 0,0
11.02.2019 11:00:00 -12,2 -14,1 15 8 19 10 SW 46 0,0
11.02.2019 10:00:00 -11,3 -13,0 18 10 19 10 SW 49 0,0
11.02.2019 09:00:00 -13,9 -15,7 13 7 19 10 SSW 50 0,0
11.02.2019 08:00:00 -12,2 -13,8 17 9 19 10 SW 50 0,0
11.02.2019 07:00:00 -10,9 -12,4 16 9 19 10 SW 50 0,0
11.02.2019 06:00:00 -7,4 -9,0 15 8 17 9 SW 50 0,0
11.02.2019 05:00:00 -7,3 -9,1 10 6 18 10 SW 50 0,0
11.02.2019 04:00:00 -5,9 -8,2 12 6 20 11 SW 50 0,0
11.02.2019 03:00:00 -6,2 -8,6 14 8 22 12 SW 50 0,0
11.02.2019 02:00:00 -6,7 -9,3 18 10 29 15 SW 50 0,0
11.02.2019 01:00:00 -7,6 -9,5 18 10 29 16 SW 50 0,0
11.02.2019 00:00:00 -6,6 -8,9 13 7 31 17 WSW 50 0,0
10.02.2019 23:00:00 -6,8 -8,7 21 11 31 17 W 50 0,0
10.02.2019 22:00:00 -7,0 -8,6 26 14 31 17 W 30 0,0
10.02.2019 21:00:00 -7,4 -8,9 22 12 31 17 WNW 10 0,1
10.02.2019 20:00:00 -6,9 -8,3 19 11 31 17 NW 2,5 0,2
10.02.2019 19:00:00 -6,8 -8,2 21 11 30 16 NW 4,1 0,2
10.02.2019 18:00:00 - - - - 29 16 - - -

tt = Température de l'air
td = dewpoint
ff = Vitesse du vent
fx = gusts
dd = Direction du vent
vv = visibility
rr = Quantités de précipitations

stations d'obs. à proximité